sensor_id;sensor_type;location;lat;lon;timestamp;temperature;humidity
10536;DHT22;5316;49.538;8.352;2024-02-04T00:01:51;10.10;1.00
10536;DHT22;5316;49.538;8.352;2024-02-04T00:04:17;10.20;1.00
10536;DHT22;5316;49.538;8.352;2024-02-04T00:06:44;10.20;1.00
10536;DHT22;5316;49.538;8.352;2024-02-04T00:09:11;10.20;1.00
10536;DHT22;5316;49.538;8.352;2024-02-04T00:11:38;10.20;1.00
10536;DHT22;5316;49.538;8.352;2024-02-04T00:14:04;10.10;1.00
10536;DHT22;5316;49.538;8.352;2024-02-04T00:16:31;10.10;1.00
10536;DHT22;5316;49.538;8.352;2024-02-04T00:18:59;10.10;1.00
10536;DHT22;5316;49.538;8.352;2024-02-04T00:21:26;10.10;1.00
10536;DHT22;5316;49.538;8.352;2024-02-04T00:23:53;10.10;1.00
10536;DHT22;5316;49.538;8.352;2024-02-04T00:26:20;10.10;1.00
10536;DHT22;5316;49.538;8.352;2024-02-04T00:28:46;10.10;1.00
10536;DHT22;5316;49.538;8.352;2024-02-04T00:31:13;10.20;1.00
10536;DHT22;5316;49.538;8.352;2024-02-04T00:33:40;10.20;1.00
10536;DHT22;5316;49.538;8.352;2024-02-04T00:36:08;10.20;1.00
10536;DHT22;5316;49.538;8.352;2024-02-04T00:38:35;10.10;1.00
10536;DHT22;5316;49.538;8.352;2024-02-04T00:41:01;10.20;1.00
10536;DHT22;5316;49.538;8.352;2024-02-04T00:43:29;10.10;1.00
10536;DHT22;5316;49.538;8.352;2024-02-04T00:45:55;10.10;1.00
10536;DHT22;5316;49.538;8.352;2024-02-04T00:48:22;10.10;1.00
10536;DHT22;5316;49.538;8.352;2024-02-04T00:50:49;10.10;1.00
10536;DHT22;5316;49.538;8.352;2024-02-04T00:53:17;10.10;1.00
10536;DHT22;5316;49.538;8.352;2024-02-04T00:55:44;10.00;1.00
10536;DHT22;5316;49.538;8.352;2024-02-04T00:58:10;10.10;1.00
10536;DHT22;5316;49.538;8.352;2024-02-04T01:00:37;10.00;1.00
10536;DHT22;5316;49.538;8.352;2024-02-04T01:03:04;10.00;1.00
10536;DHT22;5316;49.538;8.352;2024-02-04T01:05:31;10.00;1.00
10536;DHT22;5316;49.538;8.352;2024-02-04T01:07:57;10.00;3.00
10536;DHT22;5316;49.538;8.352;2024-02-04T01:10:26;9.90;28.80
10536;DHT22;5316;49.538;8.352;2024-02-04T01:12:53;9.90;75.40
10536;DHT22;5316;49.538;8.352;2024-02-04T01:15:20;9.90;62.20
10536;DHT22;5316;49.538;8.352;2024-02-04T01:17:46;10.00;57.60
10536;DHT22;5316;49.538;8.352;2024-02-04T01:20:13;9.90;27.50
10536;DHT22;5316;49.538;8.352;2024-02-04T01:22:40;9.90;49.50
10536;DHT22;5316;49.538;8.352;2024-02-04T01:25:07;10.00;68.00
10536;DHT22;5316;49.538;8.352;2024-02-04T01:27:35;9.90;66.50
10536;DHT22;5316;49.538;8.352;2024-02-04T01:30:02;9.90;61.80
10536;DHT22;5316;49.538;8.352;2024-02-04T01:32:29;9.90;45.90
10536;DHT22;5316;49.538;8.352;2024-02-04T01:34:56;9.90;89.30
10536;DHT22;5316;49.538;8.352;2024-02-04T01:37:22;9.90;79.30
10536;DHT22;5316;49.538;8.352;2024-02-04T01:39:49;9.90;88.60
10536;DHT22;5316;49.538;8.352;2024-02-04T01:42:16;9.90;84.90
10536;DHT22;5316;49.538;8.352;2024-02-04T01:44:44;9.90;61.90
10536;DHT22;5316;49.538;8.352;2024-02-04T01:47:11;9.90;68.00
10536;DHT22;5316;49.538;8.352;2024-02-04T01:49:38;9.90;96.90
10536;DHT22;5316;49.538;8.352;2024-02-04T01:52:06;9.80;99.90
10536;DHT22;5316;49.538;8.352;2024-02-04T01:54:34;9.80;99.90
10536;DHT22;5316;49.538;8.352;2024-02-04T01:57:03;9.80;99.90
10536;DHT22;5316;49.538;8.352;2024-02-04T01:59:30;9.80;99.90
10536;DHT22;5316;49.538;8.352;2024-02-04T02:01:59;9.80;99.90
10536;DHT22;5316;49.538;8.352;2024-02-04T02:04:26;9.80;99.90
10536;DHT22;5316;49.538;8.352;2024-02-04T02:06:54;9.90;99.90
10536;DHT22;5316;49.538;8.352;2024-02-04T02:09:20;9.80;99.90
10536;DHT22;5316;49.538;8.352;2024-02-04T02:11:51;9.80;99.90
10536;DHT22;5316;49.538;8.352;2024-02-04T02:14:29;9.90;99.90
10536;DHT22;5316;49.538;8.352;2024-02-04T02:17:02;9.80;99.90
10536;DHT22;5316;49.538;8.352;2024-02-04T02:19:39;9.90;99.90
10536;DHT22;5316;49.538;8.352;2024-02-04T02:22:15;9.90;99.90
10536;DHT22;5316;49.538;8.352;2024-02-04T02:24:47;9.90;99.90
10536;DHT22;5316;49.538;8.352;2024-02-04T02:27:13;9.80;99.90
10536;DHT22;5316;49.538;8.352;2024-02-04T02:29:40;9.80;99.90
10536;DHT22;5316;49.538;8.352;2024-02-04T02:32:07;9.80;99.90
10536;DHT22;5316;49.538;8.352;2024-02-04T02:34:33;9.80;99.40
10536;DHT22;5316;49.538;8.352;2024-02-04T02:37:06;9.90;64.20
10536;DHT22;5316;49.538;8.352;2024-02-04T02:39:40;9.90;78.60
10536;DHT22;5316;49.538;8.352;2024-02-04T02:42:10;9.90;52.90
10536;DHT22;5316;49.538;8.352;2024-02-04T02:44:39;9.90;50.50
10536;DHT22;5316;49.538;8.352;2024-02-04T02:47:06;9.90;34.30
10536;DHT22;5316;49.538;8.352;2024-02-04T02:49:34;9.90;50.00
10536;DHT22;5316;49.538;8.352;2024-02-04T02:52:00;9.90;30.00
10536;DHT22;5316;49.538;8.352;2024-02-04T02:54:27;9.90;55.00
10536;DHT22;5316;49.538;8.352;2024-02-04T02:56:54;9.90;51.20
10536;DHT22;5316;49.538;8.352;2024-02-04T02:59:22;9.90;1.00
10536;DHT22;5316;49.538;8.352;2024-02-04T03:01:48;9.90;11.80
10536;DHT22;5316;49.538;8.352;2024-02-04T03:04:15;9.90;6.70
10536;DHT22;5316;49.538;8.352;2024-02-04T03:06:42;9.90;16.80
10536;DHT22;5316;49.538;8.352;2024-02-04T03:09:08;9.90;41.10
10536;DHT22;5316;49.538;8.352;2024-02-04T03:11:35;9.80;66.00
10536;DHT22;5316;49.538;8.352;2024-02-04T03:14:03;9.80;71.20
10536;DHT22;5316;49.538;8.352;2024-02-04T03:16:31;9.80;99.90
10536;DHT22;5316;49.538;8.352;2024-02-04T03:18:58;9.80;99.90
10536;DHT22;5316;49.538;8.352;2024-02-04T03:21:25;9.80;99.90
10536;DHT22;5316;49.538;8.352;2024-02-04T03:23:51;9.80;99.90
10536;DHT22;5316;49.538;8.352;2024-02-04T03:26:18;9.80;99.90
10536;DHT22;5316;49.538;8.352;2024-02-04T03:28:45;9.80;99.90
10536;DHT22;5316;49.538;8.352;2024-02-04T03:31:12;9.80;99.90
10536;DHT22;5316;49.538;8.352;2024-02-04T03:33:46;9.80;99.90
10536;DHT22;5316;49.538;8.352;2024-02-04T03:36:18;9.80;99.90
10536;DHT22;5316;49.538;8.352;2024-02-04T03:38:45;9.70;99.90
10536;DHT22;5316;49.538;8.352;2024-02-04T03:41:12;9.80;99.90
10536;DHT22;5316;49.538;8.352;2024-02-04T03:43:39;9.80;99.90
10536;DHT22;5316;49.538;8.352;2024-02-04T03:46:05;9.80;99.90
10536;DHT22;5316;49.538;8.352;2024-02-04T03:48:32;9.70;99.90
10536;DHT22;5316;49.538;8.352;2024-02-04T03:51:00;9.80;99.90
10536;DHT22;5316;49.538;8.352;2024-02-04T03:53:27;9.80;99.90
10536;DHT22;5316;49.538;8.352;2024-02-04T03:55:54;9.80;99.90
10536;DHT22;5316;49.538;8.352;2024-02-04T03:58:20;9.80;99.90
10536;DHT22;5316;49.538;8.352;2024-02-04T04:00:54;9.80;99.90
10536;DHT22;5316;49.538;8.352;2024-02-04T04:03:21;9.70;99.90
10536;DHT22;5316;49.538;8.352;2024-02-04T04:05:48;9.70;99.90
10536;DHT22;5316;49.538;8.352;2024-02-04T04:08:16;9.80;99.90
10536;DHT22;5316;49.538;8.352;2024-02-04T04:10:43;9.70;99.90
10536;DHT22;5316;49.538;8.352;2024-02-04T04:13:10;9.70;99.90
10536;DHT22;5316;49.538;8.352;2024-02-04T04:15:37;9.70;99.90
10536;DHT22;5316;49.538;8.352;2024-02-04T04:18:04;9.70;99.90
10536;DHT22;5316;49.538;8.352;2024-02-04T04:20:30;9.70;99.90
10536;DHT22;5316;49.538;8.352;2024-02-04T04:22:57;9.70;99.90
10536;DHT22;5316;49.538;8.352;2024-02-04T04:25:25;9.70;99.90
10536;DHT22;5316;49.538;8.352;2024-02-04T04:27:52;9.70;99.90
10536;DHT22;5316;49.538;8.352;2024-02-04T04:30:18;9.70;99.90
10536;DHT22;5316;49.538;8.352;2024-02-04T04:32:45;9.70;99.90
10536;DHT22;5316;49.538;8.352;2024-02-04T04:35:12;9.70;99.90
10536;DHT22;5316;49.538;8.352;2024-02-04T04:37:38;9.70;99.90
10536;DHT22;5316;49.538;8.352;2024-02-04T04:40:06;9.70;99.90
10536;DHT22;5316;49.538;8.352;2024-02-04T04:42:34;9.60;99.90
10536;DHT22;5316;49.538;8.352;2024-02-04T04:45:01;9.60;99.90
10536;DHT22;5316;49.538;8.352;2024-02-04T04:47:28;9.60;99.90
10536;DHT22;5316;49.538;8.352;2024-02-04T04:49:55;9.60;99.90
10536;DHT22;5316;49.538;8.352;2024-02-04T04:52:21;9.60;99.90
10536;DHT22;5316;49.538;8.352;2024-02-04T04:54:48;9.50;99.90
10536;DHT22;5316;49.538;8.352;2024-02-04T04:57:15;9.60;99.90
10536;DHT22;5316;49.538;8.352;2024-02-04T04:59:43;9.60;99.90
10536;DHT22;5316;49.538;8.352;2024-02-04T05:02:10;9.60;99.90
10536;DHT22;5316;49.538;8.352;2024-02-04T05:04:37;9.60;99.90
10536;DHT22;5316;49.538;8.352;2024-02-04T05:07:04;9.00;99.90
10536;DHT22;5316;49.538;8.352;2024-02-04T05:09:30;9.70;99.90
10536;DHT22;5316;49.538;8.352;2024-02-04T05:11:57;9.70;99.90
10536;DHT22;5316;49.538;8.352;2024-02-04T05:14:24;9.70;99.90
10536;DHT22;5316;49.538;8.352;2024-02-04T05:16:52;9.70;99.90
10536;DHT22;5316;49.538;8.352;2024-02-04T05:19:18;9.70;99.90
10536;DHT22;5316;49.538;8.352;2024-02-04T05:21:45;9.70;99.90
10536;DHT22;5316;49.538;8.352;2024-02-04T05:24:12;9.70;99.90
10536;DHT22;5316;49.538;8.352;2024-02-04T05:26:38;9.70;99.90
10536;DHT22;5316;49.538;8.352;2024-02-04T05:29:05;9.70;99.90
10536;DHT22;5316;49.538;8.352;2024-02-04T05:31:32;9.70;99.90
10536;DHT22;5316;49.538;8.352;2024-02-04T05:34:05;9.70;99.90
10536;DHT22;5316;49.538;8.352;2024-02-04T05:36:32;9.70;99.90
10536;DHT22;5316;49.538;8.352;2024-02-04T05:39:09;9.70;99.90
10536;DHT22;5316;49.538;8.352;2024-02-04T05:41:36;9.70;99.90
10536;DHT22;5316;49.538;8.352;2024-02-04T05:44:02;9.70;99.90
10536;DHT22;5316;49.538;8.352;2024-02-04T05:46:29;9.60;99.90
10536;DHT22;5316;49.538;8.352;2024-02-04T05:48:56;9.60;99.90
10536;DHT22;5316;49.538;8.352;2024-02-04T05:51:24;9.70;99.90
10536;DHT22;5316;49.538;8.352;2024-02-04T05:53:50;9.70;99.90
10536;DHT22;5316;49.538;8.352;2024-02-04T05:56:17;9.60;99.90
10536;DHT22;5316;49.538;8.352;2024-02-04T05:58:45;9.60;99.90
10536;DHT22;5316;49.538;8.352;2024-02-04T06:01:12;9.60;99.90
10536;DHT22;5316;49.538;8.352;2024-02-04T06:03:41;9.60;99.90
10536;DHT22;5316;49.538;8.352;2024-02-04T06:06:08;9.50;99.90
10536;DHT22;5316;49.538;8.352;2024-02-04T06:08:36;9.50;99.90
10536;DHT22;5316;49.538;8.352;2024-02-04T06:11:03;9.60;99.90
10536;DHT22;5316;49.538;8.352;2024-02-04T06:13:29;9.50;99.90
10536;DHT22;5316;49.538;8.352;2024-02-04T06:15:56;9.50;99.90
10536;DHT22;5316;49.538;8.352;2024-02-04T06:18:23;9.60;99.90
10536;DHT22;5316;49.538;8.352;2024-02-04T06:20:49;9.50;99.90
10536;DHT22;5316;49.538;8.352;2024-02-04T06:23:16;9.50;99.90
10536;DHT22;5316;49.538;8.352;2024-02-04T06:25:46;9.50;99.90
10536;DHT22;5316;49.538;8.352;2024-02-04T06:28:13;9.50;99.90
10536;DHT22;5316;49.538;8.352;2024-02-04T06:30:40;9.50;99.90
10536;DHT22;5316;49.538;8.352;2024-02-04T06:33:06;9.50;99.90
10536;DHT22;5316;49.538;8.352;2024-02-04T06:35:33;9.50;96.80
10536;DHT22;5316;49.538;8.352;2024-02-04T06:38:00;9.50;99.90
10536;DHT22;5316;49.538;8.352;2024-02-04T06:40:26;9.50;99.90
10536;DHT22;5316;49.538;8.352;2024-02-04T06:42:54;9.50;99.90
10536;DHT22;5316;49.538;8.352;2024-02-04T06:45:21;9.50;99.90
10536;DHT22;5316;49.538;8.352;2024-02-04T06:47:48;9.50;93.50
10536;DHT22;5316;49.538;8.352;2024-02-04T06:50:14;9.50;85.00
10536;DHT22;5316;49.538;8.352;2024-02-04T06:52:42;9.50;65.70
10536;DHT22;5316;49.538;8.352;2024-02-04T06:55:10;9.50;35.30
10536;DHT22;5316;49.538;8.352;2024-02-04T06:57:37;9.60;27.90
10536;DHT22;5316;49.538;8.352;2024-02-04T07:00:07;9.50;6.00
10536;DHT22;5316;49.538;8.352;2024-02-04T07:02:34;9.60;1.00
10536;DHT22;5316;49.538;8.352;2024-02-04T07:05:01;9.60;1.00
10536;DHT22;5316;49.538;8.352;2024-02-04T07:07:28;9.60;1.00
10536;DHT22;5316;49.538;8.352;2024-02-04T07:09:54;9.60;1.00
10536;DHT22;5316;49.538;8.352;2024-02-04T07:12:21;9.60;1.00
10536;DHT22;5316;49.538;8.352;2024-02-04T07:14:48;9.60;19.70
10536;DHT22;5316;49.538;8.352;2024-02-04T07:17:16;9.60;26.80
10536;DHT22;5316;49.538;8.352;2024-02-04T07:19:42;9.50;24.50
10536;DHT22;5316;49.538;8.352;2024-02-04T07:22:09;9.50;90.60
10536;DHT22;5316;49.538;8.352;2024-02-04T07:24:36;9.50;99.90
10536;DHT22;5316;49.538;8.352;2024-02-04T07:27:02;9.50;99.90
10536;DHT22;5316;49.538;8.352;2024-02-04T07:29:29;9.40;99.90
10536;DHT22;5316;49.538;8.352;2024-02-04T07:31:56;9.40;99.90
10536;DHT22;5316;49.538;8.352;2024-02-04T07:34:25;9.40;99.90
10536;DHT22;5316;49.538;8.352;2024-02-04T07:36:51;9.40;99.90
10536;DHT22;5316;49.538;8.352;2024-02-04T07:39:18;9.30;99.90
10536;DHT22;5316;49.538;8.352;2024-02-04T07:41:45;9.40;99.90
10536;DHT22;5316;49.538;8.352;2024-02-04T07:44:13;9.30;99.90
10536;DHT22;5316;49.538;8.352;2024-02-04T07:46:39;9.30;99.90
10536;DHT22;5316;49.538;8.352;2024-02-04T07:49:06;9.40;99.90
10536;DHT22;5316;49.538;8.352;2024-02-04T07:51:34;9.30;99.90
10536;DHT22;5316;49.538;8.352;2024-02-04T07:54:03;9.30;99.90
10536;DHT22;5316;49.538;8.352;2024-02-04T07:56:30;9.30;99.90
10536;DHT22;5316;49.538;8.352;2024-02-04T07:58:56;9.40;99.90
10536;DHT22;5316;49.538;8.352;2024-02-04T08:01:23;9.40;99.90
10536;DHT22;5316;49.538;8.352;2024-02-04T08:03:50;9.40;99.90
10536;DHT22;5316;49.538;8.352;2024-02-04T08:06:17;9.40;99.90
10536;DHT22;5316;49.538;8.352;2024-02-04T08:08:45;9.40;99.90
10536;DHT22;5316;49.538;8.352;2024-02-04T08:11:16;9.50;99.90
10536;DHT22;5316;49.538;8.352;2024-02-04T08:13:43;9.50;99.90
10536;DHT22;5316;49.538;8.352;2024-02-04T08:16:10;9.60;99.90
10536;DHT22;5316;49.538;8.352;2024-02-04T08:18:36;9.60;87.00
10536;DHT22;5316;49.538;8.352;2024-02-04T08:21:03;9.60;93.10
10536;DHT22;5316;49.538;8.352;2024-02-04T08:23:30;9.60;40.30
10536;DHT22;5316;49.538;8.352;2024-02-04T08:25:59;9.60;43.70
10536;DHT22;5316;49.538;8.352;2024-02-04T08:28:26;9.60;60.20
10536;DHT22;5316;49.538;8.352;2024-02-04T08:30:52;9.60;30.90
10536;DHT22;5316;49.538;8.352;2024-02-04T08:33:19;9.60;43.70
10536;DHT22;5316;49.538;8.352;2024-02-04T08:35:46;9.60;51.00
10536;DHT22;5316;49.538;8.352;2024-02-04T08:38:13;9.60;90.80
10536;DHT22;5316;49.538;8.352;2024-02-04T08:40:40;9.60;86.30
10536;DHT22;5316;49.538;8.352;2024-02-04T08:43:08;9.60;64.60
10536;DHT22;5316;49.538;8.352;2024-02-04T08:45:34;9.60;89.70
10536;DHT22;5316;49.538;8.352;2024-02-04T08:48:01;9.60;65.20
10536;DHT22;5316;49.538;8.352;2024-02-04T08:50:28;9.60;64.90
10536;DHT22;5316;49.538;8.352;2024-02-04T08:52:55;9.50;94.40
10536;DHT22;5316;49.538;8.352;2024-02-04T08:55:22;9.60;59.40
10536;DHT22;5316;49.538;8.352;2024-02-04T08:57:49;9.60;1.00
10536;DHT22;5316;49.538;8.352;2024-02-04T09:00:18;9.80;1.00
10536;DHT22;5316;49.538;8.352;2024-02-04T09:02:45;9.90;1.00
10536;DHT22;5316;49.538;8.352;2024-02-04T09:05:12;10.00;99.90
10536;DHT22;5316;49.538;8.352;2024-02-04T09:07:40;10.10;35.70
10536;DHT22;5316;49.538;8.352;2024-02-04T09:10:07;10.30;1.00
10536;DHT22;5316;49.538;8.352;2024-02-04T09:12:34;10.30;1.00
10536;DHT22;5316;49.538;8.352;2024-02-04T09:15:01;10.40;1.00
10536;DHT22;5316;49.538;8.352;2024-02-04T09:17:30;10.30;1.00
10536;DHT22;5316;49.538;8.352;2024-02-04T09:19:59;10.40;1.00
10536;DHT22;5316;49.538;8.352;2024-02-04T09:22:26;10.40;99.90
10536;DHT22;5316;49.538;8.352;2024-02-04T09:24:52;10.40;1.00
10536;DHT22;5316;49.538;8.352;2024-02-04T09:27:19;10.40;1.00
10536;DHT22;5316;49.538;8.352;2024-02-04T09:29:46;10.50;99.90
10536;DHT22;5316;49.538;8.352;2024-02-04T09:32:13;10.50;99.90
10536;DHT22;5316;49.538;8.352;2024-02-04T09:34:41;10.50;99.90
10536;DHT22;5316;49.538;8.352;2024-02-04T09:37:07;10.50;1.00
10536;DHT22;5316;49.538;8.352;2024-02-04T09:39:34;10.50;1.00
10536;DHT22;5316;49.538;8.352;2024-02-04T09:42:02;10.50;99.90
10536;DHT22;5316;49.538;8.352;2024-02-04T09:44:29;10.50;99.90
10536;DHT22;5316;49.538;8.352;2024-02-04T09:46:57;10.60;1.00
10536;DHT22;5316;49.538;8.352;2024-02-04T09:49:25;10.60;1.00
10536;DHT22;5316;49.538;8.352;2024-02-04T09:51:54;10.60;1.00
10536;DHT22;5316;49.538;8.352;2024-02-04T09:54:23;10.70;1.00
10536;DHT22;5316;49.538;8.352;2024-02-04T09:56:51;10.70;1.00
10536;DHT22;5316;49.538;8.352;2024-02-04T09:59:18;10.70;99.90
10536;DHT22;5316;49.538;8.352;2024-02-04T10:01:45;10.80;99.90
10536;DHT22;5316;49.538;8.352;2024-02-04T10:04:13;10.70;1.00
10536;DHT22;5316;49.538;8.352;2024-02-04T10:06:39;10.70;1.00
10536;DHT22;5316;49.538;8.352;2024-02-04T10:09:07;10.70;1.00
10536;DHT22;5316;49.538;8.352;2024-02-04T10:11:34;10.80;1.00
10536;DHT22;5316;49.538;8.352;2024-02-04T10:14:01;10.70;99.90
10536;DHT22;5316;49.538;8.352;2024-02-04T10:16:27;10.70;99.90
10536;DHT22;5316;49.538;8.352;2024-02-04T10:18:55;10.70;99.90
10536;DHT22;5316;49.538;8.352;2024-02-04T10:21:22;10.70;99.90
10536;DHT22;5316;49.538;8.352;2024-02-04T10:23:50;10.70;99.90
10536;DHT22;5316;49.538;8.352;2024-02-04T10:26:19;10.80;99.90
10536;DHT22;5316;49.538;8.352;2024-02-04T10:28:46;10.80;99.90
10536;DHT22;5316;49.538;8.352;2024-02-04T10:31:14;10.80;1.00
10536;DHT22;5316;49.538;8.352;2024-02-04T10:33:41;10.80;1.00
10536;DHT22;5316;49.538;8.352;2024-02-04T10:36:08;10.90;1.00
10536;DHT22;5316;49.538;8.352;2024-02-04T10:38:35;10.90;99.90
10536;DHT22;5316;49.538;8.352;2024-02-04T10:41:02;10.90;99.90
10536;DHT22;5316;49.538;8.352;2024-02-04T10:43:32;10.90;99.90
10536;DHT22;5316;49.538;8.352;2024-02-04T10:46:01;11.00;99.90
10536;DHT22;5316;49.538;8.352;2024-02-04T10:48:34;11.00;8.00
10536;DHT22;5316;49.538;8.352;2024-02-04T10:51:11;11.10;1.00
10536;DHT22;5316;49.538;8.352;2024-02-04T10:53:40;11.10;99.90
10536;DHT22;5316;49.538;8.352;2024-02-04T10:56:13;11.10;99.90
10536;DHT22;5316;49.538;8.352;2024-02-04T10:58:43;11.00;99.90
10536;DHT22;5316;49.538;8.352;2024-02-04T11:01:10;11.10;1.00
10536;DHT22;5316;49.538;8.352;2024-02-04T11:03:39;11.10;1.00
10536;DHT22;5316;49.538;8.352;2024-02-04T11:06:07;11.10;99.90
10536;DHT22;5316;49.538;8.352;2024-02-04T11:08:34;11.10;99.90
10536;DHT22;5316;49.538;8.352;2024-02-04T11:11:01;11.10;1.00
10536;DHT22;5316;49.538;8.352;2024-02-04T11:13:28;11.20;99.90
10536;DHT22;5316;49.538;8.352;2024-02-04T11:15:57;11.30;99.90
10536;DHT22;5316;49.538;8.352;2024-02-04T11:18:34;11.40;1.00
10536;DHT22;5316;49.538;8.352;2024-02-04T11:21:25;11.30;1.00
10536;DHT22;5316;49.538;8.352;2024-02-04T11:24:05;11.30;1.00
10536;DHT22;5316;49.538;8.352;2024-02-04T11:26:35;11.30;36.80
10536;DHT22;5316;49.538;8.352;2024-02-04T11:29:06;11.30;99.90
10536;DHT22;5316;49.538;8.352;2024-02-04T11:31:34;11.20;99.90
10536;DHT22;5316;49.538;8.352;2024-02-04T11:34:01;11.20;99.90
10536;DHT22;5316;49.538;8.352;2024-02-04T11:36:28;11.10;1.00
10536;DHT22;5316;49.538;8.352;2024-02-04T11:38:54;11.10;96.00
10536;DHT22;5316;49.538;8.352;2024-02-04T11:41:22;11.20;1.00
10536;DHT22;5316;49.538;8.352;2024-02-04T11:43:52;11.20;99.90
10536;DHT22;5316;49.538;8.352;2024-02-04T11:46:19;11.20;1.00
10536;DHT22;5316;49.538;8.352;2024-02-04T11:48:53;11.30;1.00
10536;DHT22;5316;49.538;8.352;2024-02-04T11:51:22;11.30;1.00
10536;DHT22;5316;49.538;8.352;2024-02-04T11:53:49;11.30;99.90
10536;DHT22;5316;49.538;8.352;2024-02-04T11:56:17;11.40;1.00
10536;DHT22;5316;49.538;8.352;2024-02-04T11:58:44;11.30;1.00
10536;DHT22;5316;49.538;8.352;2024-02-04T12:01:11;11.30;99.90
10536;DHT22;5316;49.538;8.352;2024-02-04T12:03:38;11.30;62.20
10536;DHT22;5316;49.538;8.352;2024-02-04T12:06:06;11.30;1.00
10536;DHT22;5316;49.538;8.352;2024-02-04T12:08:34;11.30;87.90
10536;DHT22;5316;49.538;8.352;2024-02-04T12:11:01;11.40;99.90
10536;DHT22;5316;49.538;8.352;2024-02-04T12:13:29;11.40;1.00
10536;DHT22;5316;49.538;8.352;2024-02-04T12:15:57;11.50;1.00
10536;DHT22;5316;49.538;8.352;2024-02-04T12:18:24;11.50;99.90
10536;DHT22;5316;49.538;8.352;2024-02-04T12:20:51;11.50;46.00
10536;DHT22;5316;49.538;8.352;2024-02-04T12:23:19;11.50;28.80
10536;DHT22;5316;49.538;8.352;2024-02-04T12:25:47;11.60;99.90
10536;DHT22;5316;49.538;8.352;2024-02-04T12:28:14;11.70;1.00
10536;DHT22;5316;49.538;8.352;2024-02-04T12:30:41;11.70;99.90
10536;DHT22;5316;49.538;8.352;2024-02-04T12:33:07;11.70;43.30
10536;DHT22;5316;49.538;8.352;2024-02-04T12:35:34;11.80;1.00
10536;DHT22;5316;49.538;8.352;2024-02-04T12:38:01;11.80;1.00
10536;DHT22;5316;49.538;8.352;2024-02-04T12:40:31;11.90;23.40
10536;DHT22;5316;49.538;8.352;2024-02-04T12:42:59;11.90;99.90
10536;DHT22;5316;49.538;8.352;2024-02-04T12:45:27;11.80;1.00
10536;DHT22;5316;49.538;8.352;2024-02-04T12:47:56;11.80;99.90
10536;DHT22;5316;49.538;8.352;2024-02-04T12:50:23;11.80;99.90
10536;DHT22;5316;49.538;8.352;2024-02-04T12:53:02;11.70;99.90
10536;DHT22;5316;49.538;8.352;2024-02-04T12:55:30;11.70;99.90
10536;DHT22;5316;49.538;8.352;2024-02-04T12:58:04;11.70;1.00
10536;DHT22;5316;49.538;8.352;2024-02-04T13:00:31;11.70;1.00
10536;DHT22;5316;49.538;8.352;2024-02-04T13:02:58;11.80;99.90
10536;DHT22;5316;49.538;8.352;2024-02-04T13:05:26;11.70;99.90
10536;DHT22;5316;49.538;8.352;2024-02-04T13:07:56;11.70;99.90
10536;DHT22;5316;49.538;8.352;2024-02-04T13:10:23;11.70;1.00
10536;DHT22;5316;49.538;8.352;2024-02-04T13:13:03;11.70;1.00
10536;DHT22;5316;49.538;8.352;2024-02-04T13:15:32;11.70;1.00
10536;DHT22;5316;49.538;8.352;2024-02-04T13:18:00;11.70;4.60
10536;DHT22;5316;49.538;8.352;2024-02-04T13:20:27;11.60;99.90
10536;DHT22;5316;49.538;8.352;2024-02-04T13:22:53;11.60;4.50
10536;DHT22;5316;49.538;8.352;2024-02-04T13:25:20;11.60;99.90
10536;DHT22;5316;49.538;8.352;2024-02-04T13:27:47;11.60;1.00
10536;DHT22;5316;49.538;8.352;2024-02-04T13:30:16;11.70;99.90
10536;DHT22;5316;49.538;8.352;2024-02-04T13:32:43;11.70;99.90
10536;DHT22;5316;49.538;8.352;2024-02-04T13:35:09;11.70;94.70
10536;DHT22;5316;49.538;8.352;2024-02-04T13:37:38;11.80;1.00
10536;DHT22;5316;49.538;8.352;2024-02-04T13:40:06;11.80;94.80
10536;DHT22;5316;49.538;8.352;2024-02-04T13:42:34;11.80;99.90
10536;DHT22;5316;49.538;8.352;2024-02-04T13:45:01;11.80;99.90
10536;DHT22;5316;49.538;8.352;2024-02-04T13:47:29;11.80;99.90
10536;DHT22;5316;49.538;8.352;2024-02-04T13:49:56;11.80;99.90
10536;DHT22;5316;49.538;8.352;2024-02-04T13:52:23;11.80;99.90
10536;DHT22;5316;49.538;8.352;2024-02-04T13:54:49;11.80;99.90
10536;DHT22;5316;49.538;8.352;2024-02-04T13:57:16;11.90;99.90
10536;DHT22;5316;49.538;8.352;2024-02-04T13:59:43;11.90;99.90
10536;DHT22;5316;49.538;8.352;2024-02-04T14:02:10;11.80;1.00
10536;DHT22;5316;49.538;8.352;2024-02-04T14:04:38;11.90;1.00
10536;DHT22;5316;49.538;8.352;2024-02-04T14:07:04;11.90;1.00
10536;DHT22;5316;49.538;8.352;2024-02-04T14:09:31;11.80;1.00
10536;DHT22;5316;49.538;8.352;2024-02-04T14:11:58;11.80;1.00
10536;DHT22;5316;49.538;8.352;2024-02-04T14:14:24;11.70;84.70
10536;DHT22;5316;49.538;8.352;2024-02-04T14:16:51;11.70;99.90
10536;DHT22;5316;49.538;8.352;2024-02-04T14:19:19;11.70;99.90
10536;DHT22;5316;49.538;8.352;2024-02-04T14:21:47;11.70;99.90
10536;DHT22;5316;49.538;8.352;2024-02-04T14:24:13;11.70;80.80
10536;DHT22;5316;49.538;8.352;2024-02-04T14:26:40;11.70;99.90
10536;DHT22;5316;49.538;8.352;2024-02-04T14:29:08;11.60;99.90
10536;DHT22;5316;49.538;8.352;2024-02-04T14:31:34;11.60;99.90
10536;DHT22;5316;49.538;8.352;2024-02-04T14:34:01;11.60;99.90
10536;DHT22;5316;49.538;8.352;2024-02-04T14:36:28;11.60;99.90
10536;DHT22;5316;49.538;8.352;2024-02-04T14:38:57;11.60;1.00
10536;DHT22;5316;49.538;8.352;2024-02-04T14:41:23;11.70;99.90
10536;DHT22;5316;49.538;8.352;2024-02-04T14:43:50;11.60;13.80
10536;DHT22;5316;49.538;8.352;2024-02-04T14:46:17;11.60;99.90
10536;DHT22;5316;49.538;8.352;2024-02-04T14:48:43;11.50;99.90
10536;DHT22;5316;49.538;8.352;2024-02-04T14:51:10;11.40;1.00
10536;DHT22;5316;49.538;8.352;2024-02-04T14:53:37;11.40;1.00
10536;DHT22;5316;49.538;8.352;2024-02-04T14:56:05;11.40;1.00
10536;DHT22;5316;49.538;8.352;2024-02-04T14:58:32;11.30;1.00
10536;DHT22;5316;49.538;8.352;2024-02-04T15:00:59;11.30;1.00
10536;DHT22;5316;49.538;8.352;2024-02-04T15:03:26;11.30;1.00
10536;DHT22;5316;49.538;8.352;2024-02-04T15:05:53;11.30;59.90
10536;DHT22;5316;49.538;8.352;2024-02-04T15:08:20;11.30;99.90
10536;DHT22;5316;49.538;8.352;2024-02-04T15:10:47;11.30;97.80
10536;DHT22;5316;49.538;8.352;2024-02-04T15:13:16;11.20;99.90
10536;DHT22;5316;49.538;8.352;2024-02-04T15:15:43;11.20;99.90
10536;DHT22;5316;49.538;8.352;2024-02-04T15:18:11;11.20;99.90
10536;DHT22;5316;49.538;8.352;2024-02-04T15:20:38;11.20;99.90
10536;DHT22;5316;49.538;8.352;2024-02-04T15:23:07;11.10;99.90
10536;DHT22;5316;49.538;8.352;2024-02-04T15:25:34;11.10;99.90
10536;DHT22;5316;49.538;8.352;2024-02-04T15:28:01;11.10;99.90
10536;DHT22;5316;49.538;8.352;2024-02-04T15:30:32;11.10;99.90
10536;DHT22;5316;49.538;8.352;2024-02-04T15:32:59;11.00;99.90
10536;DHT22;5316;49.538;8.352;2024-02-04T15:35:26;11.00;99.90
10536;DHT22;5316;49.538;8.352;2024-02-04T15:37:53;11.10;99.90
10536;DHT22;5316;49.538;8.352;2024-02-04T15:40:23;11.00;1.00
10536;DHT22;5316;49.538;8.352;2024-02-04T15:42:50;11.00;1.00
10536;DHT22;5316;49.538;8.352;2024-02-04T15:45:17;11.00;1.00
10536;DHT22;5316;49.538;8.352;2024-02-04T15:47:49;11.00;1.00
10536;DHT22;5316;49.538;8.352;2024-02-04T15:50:18;11.00;1.00
10536;DHT22;5316;49.538;8.352;2024-02-04T15:52:45;11.00;1.00
10536;DHT22;5316;49.538;8.352;2024-02-04T15:55:14;11.00;1.00
10536;DHT22;5316;49.538;8.352;2024-02-04T15:57:46;10.90;1.00
10536;DHT22;5316;49.538;8.352;2024-02-04T16:00:15;10.90;1.00